createdAt,value
2023-01-28T00:01:12.573Z,0.39
2023-01-28T00:04:15.457Z,0.38
2023-01-28T00:07:19.382Z,0.38
2023-01-28T00:10:22.267Z,0.32
2023-01-28T00:13:25.101Z,0.31
2023-01-28T00:16:28.150Z,0.33
2023-01-28T00:19:30.926Z,0.40
2023-01-28T00:22:34.253Z,0.38
2023-01-28T00:25:36.984Z,0.40
2023-01-28T00:28:39.895Z,0.41
2023-01-28T00:31:42.750Z,0.39
2023-01-28T00:34:45.604Z,0.38
2023-01-28T00:37:48.378Z,0.42
2023-01-28T00:40:51.381Z,0.47
2023-01-28T00:43:54.841Z,0.47
2023-01-28T00:46:57.595Z,0.45
2023-01-28T00:50:00.308Z,0.51
2023-01-28T00:53:03.118Z,0.42
2023-01-28T00:56:07.951Z,0.47
2023-01-28T00:59:10.966Z,0.47
2023-01-28T01:02:14.048Z,0.52
2023-01-28T01:05:17.238Z,0.50
2023-01-28T01:08:20.190Z,0.55
2023-01-28T01:11:23.366Z,0.35
2023-01-28T01:14:26.182Z,0.34
2023-01-28T01:17:32.404Z,0.31
2023-01-28T01:20:40.089Z,0.42
2023-01-28T01:23:42.805Z,0.33
2023-01-28T01:26:45.545Z,0.42
2023-01-28T01:29:48.250Z,0.43
2023-01-28T01:32:51.060Z,0.44
2023-01-28T01:35:57.740Z,0.36
2023-01-28T01:39:02.511Z,0.33
2023-01-28T01:42:05.855Z,0.33
2023-01-28T01:45:14.716Z,0.34
2023-01-28T01:48:25.254Z,0.39
2023-01-28T01:51:33.311Z,0.35
2023-01-28T01:54:38.836Z,0.25
2023-01-28T01:57:43.387Z,0.45
2023-01-28T02:00:46.707Z,0.43
2023-01-28T02:04:02.009Z,0.39
2023-01-28T02:07:05.914Z,0.37
2023-01-28T02:10:10.493Z,0.36
2023-01-28T02:13:16.605Z,0.34
2023-01-28T02:16:19.660Z,0.42
2023-01-28T02:19:27.732Z,0.43
2023-01-28T02:23:13.148Z,0.43
2023-01-28T02:26:21.705Z,0.30
2023-01-28T02:29:41.540Z,0.42
2023-01-28T02:32:53.806Z,0.53
2023-01-28T02:35:56.772Z,0.40
2023-01-28T02:39:08.582Z,0.44
2023-01-28T02:42:17.434Z,0.44
2023-01-28T02:45:47.202Z,0.43
2023-01-28T02:48:50.531Z,0.43
2023-01-28T02:52:01.127Z,0.34
2023-01-28T02:55:13.096Z,0.46
2023-01-28T02:58:49.850Z,0.40
2023-01-28T03:02:17.958Z,0.36
2023-01-28T03:05:29.719Z,0.44
2023-01-28T03:09:27.291Z,0.51
2023-01-28T03:12:50.930Z,0.43
2023-01-28T03:16:12.321Z,0.43
2023-01-28T03:19:36.537Z,0.34
2023-01-28T03:23:02.671Z,0.37
2023-01-28T03:26:27.449Z,0.36
2023-01-28T03:29:50.510Z,0.35
2023-01-28T03:33:15.391Z,0.32
2023-01-28T03:36:37.087Z,0.33
2023-01-28T03:39:40.908Z,0.35
2023-01-28T03:42:45.939Z,0.35
2023-01-28T03:46:06.578Z,0.41
2023-01-28T03:49:09.639Z,0.41
2023-01-28T03:52:13.440Z,0.37
2023-01-28T03:55:16.385Z,0.38
2023-01-28T03:58:23.540Z,0.39
2023-01-28T04:01:27.158Z,0.37
2023-01-28T04:04:32.746Z,0.37
2023-01-28T04:07:35.639Z,0.35
2023-01-28T04:10:58.575Z,0.30
2023-01-28T04:14:05.257Z,0.33
2023-01-28T04:17:29.831Z,0.30
2023-01-28T04:20:33.303Z,0.30
2023-01-28T04:23:37.175Z,0.28
2023-01-28T04:26:40.203Z,0.36
2023-01-28T04:29:43.138Z,0.32
2023-01-28T04:33:17.962Z,0.38
2023-01-28T04:36:30.333Z,0.36
2023-01-28T04:39:53.258Z,0.34
2023-01-28T04:42:58.716Z,0.27
2023-01-28T04:46:22.289Z,0.34
2023-01-28T04:49:39.567Z,0.32
2023-01-28T04:53:05.433Z,0.36
2023-01-28T04:56:34.484Z,0.40
2023-01-28T04:59:37.617Z,0.43
2023-01-28T05:02:40.643Z,0.44
2023-01-28T05:05:43.428Z,0.46
2023-01-28T05:08:56.620Z,0.41
2023-01-28T05:11:59.343Z,0.34
2023-01-28T05:15:02.350Z,0.33
2023-01-28T05:18:05.279Z,0.33
2023-01-28T05:21:14.684Z,0.37
2023-01-28T05:24:17.615Z,0.37
2023-01-28T05:27:20.619Z,0.38
2023-01-28T05:30:24.328Z,0.43
2023-01-28T05:33:27.771Z,0.36
2023-01-28T05:36:30.611Z,0.38
2023-01-28T05:39:36.382Z,0.45
2023-01-28T05:42:39.523Z,0.34
2023-01-28T05:45:57.829Z,0.25
2023-01-28T05:49:12.490Z,0.32
2023-01-28T05:52:33.983Z,0.40
2023-01-28T05:55:36.899Z,0.34
2023-01-28T05:58:40.031Z,0.37
2023-01-28T06:01:44.008Z,0.33
2023-01-28T06:04:46.784Z,0.44
2023-01-28T06:07:50.744Z,0.41
2023-01-28T06:10:54.178Z,0.42
2023-01-28T06:13:59.393Z,0.40
2023-01-28T06:17:08.125Z,0.44
2023-01-28T06:20:23.225Z,0.34
2023-01-28T06:23:27.120Z,0.36
2023-01-28T06:26:30.718Z,0.34
2023-01-28T06:29:33.573Z,0.34
2023-01-28T06:32:36.849Z,0.33
2023-01-28T06:35:39.561Z,0.35
2023-01-28T06:38:42.335Z,0.36
2023-01-28T06:41:45.141Z,0.38
2023-01-28T06:44:47.969Z,0.35
2023-01-28T06:47:50.745Z,0.38
2023-01-28T06:50:53.938Z,0.36
2023-01-28T06:53:56.707Z,0.36
2023-01-28T06:56:59.599Z,0.38
2023-01-28T07:00:02.554Z,0.31
2023-01-28T07:03:05.577Z,0.37
2023-01-28T07:06:08.565Z,0.31
2023-01-28T07:09:11.300Z,0.34
2023-01-28T07:12:14.066Z,0.39
2023-01-28T07:15:17.003Z,0.36
2023-01-28T07:18:19.963Z,0.38
2023-01-28T07:21:22.763Z,0.40
2023-01-28T07:24:25.663Z,0.45
2023-01-28T07:27:28.363Z,0.49
2023-01-28T07:30:31.191Z,0.43
2023-01-28T07:33:34.055Z,0.47
2023-01-28T07:36:36.789Z,0.57
2023-01-28T07:39:39.509Z,0.58
2023-01-28T07:42:42.439Z,0.58
2023-01-28T07:45:48.639Z,0.56
2023-01-28T07:48:51.567Z,0.62
2023-01-28T07:51:54.389Z,0.53
2023-01-28T07:54:57.124Z,0.57
2023-01-28T07:58:00.882Z,0.66
2023-01-28T08:01:04.541Z,0.58
2023-01-28T08:04:07.486Z,0.77
2023-01-28T08:07:10.310Z,0.80
2023-01-28T08:10:13.750Z,0.88
2023-01-28T08:13:18.637Z,1.07
2023-01-28T08:16:21.424Z,0.82
2023-01-28T08:19:24.203Z,0.92
2023-01-28T08:22:27.725Z,1.02
2023-01-28T08:25:30.431Z,1.11
2023-01-28T08:28:33.155Z,1.05
2023-01-28T08:31:35.957Z,1.22
2023-01-28T08:34:38.668Z,1.25
2023-01-28T08:37:41.417Z,1.33
2023-01-28T08:40:44.241Z,1.55
2023-01-28T08:43:47.863Z,1.32
2023-01-28T08:46:50.597Z,1.30
2023-01-28T08:49:53.596Z,1.50
2023-01-28T08:52:58.161Z,1.62
2023-01-28T08:56:00.851Z,1.77
2023-01-28T08:59:03.629Z,1.67
2023-01-28T09:02:06.655Z,1.82
2023-01-28T09:05:10.944Z,2.05
2023-01-28T09:08:15.348Z,1.65
2023-01-28T09:11:18.242Z,2.06
2023-01-28T09:14:21.170Z,1.96
2023-01-28T09:17:23.991Z,2.13
2023-01-28T09:20:27.220Z,1.92
2023-01-28T09:23:29.911Z,1.79
2023-01-28T09:26:34.694Z,1.77
2023-01-28T09:29:38.832Z,1.96
2023-01-28T09:32:42.018Z,2.16
2023-01-28T09:35:45.560Z,2.05
2023-01-28T09:38:48.356Z,1.91
2023-01-28T09:42:03.155Z,2.02
2023-01-28T09:45:16.363Z,2.03
2023-01-28T09:48:30.826Z,2.04
2023-01-28T09:51:36.229Z,2.64
2023-01-28T09:54:45.259Z,2.03
2023-01-28T09:57:52.401Z,1.92
2023-01-28T10:01:05.501Z,2.17
2023-01-28T10:04:43.424Z,2.24
2023-01-28T10:07:58.337Z,2.14
2023-01-28T10:11:05.097Z,2.31
2023-01-28T10:14:38.441Z,2.55
2023-01-28T10:17:47.677Z,2.35
2023-01-28T10:20:55.345Z,2.54
2023-01-28T10:24:03.612Z,2.90
2023-01-28T10:27:16.670Z,2.40
2023-01-28T10:30:28.631Z,2.46
2023-01-28T10:33:37.154Z,2.43
2023-01-28T10:36:39.979Z,2.32
2023-01-28T10:39:43.541Z,2.46
2023-01-28T10:42:46.539Z,2.71
2023-01-28T10:46:26.940Z,2.65
2023-01-28T10:49:31.614Z,2.54
2023-01-28T10:52:34.617Z,2.49
2023-01-28T10:55:56.128Z,2.66
2023-01-28T10:59:02.901Z,2.62
2023-01-28T11:02:28.789Z,2.51
2023-01-28T11:05:31.836Z,2.66
2023-01-28T11:08:44.546Z,2.74
2023-01-28T11:11:47.369Z,2.72
2023-01-28T11:15:04.550Z,2.28
2023-01-28T11:18:17.759Z,2.32
2023-01-28T11:21:24.645Z,2.73
2023-01-28T11:24:32.523Z,2.42
2023-01-28T11:27:35.535Z,2.44
2023-01-28T11:30:41.302Z,2.12
2023-01-28T11:34:00.644Z,2.20
2023-01-28T11:37:12.827Z,2.47
2023-01-28T11:40:21.937Z,2.32
2023-01-28T11:43:30.172Z,2.22
2023-01-28T11:47:00.408Z,2.28
2023-01-28T11:50:18.504Z,2.39
2023-01-28T11:53:35.987Z,2.35
2023-01-28T11:56:50.744Z,2.25
2023-01-28T12:00:12.531Z,2.31
2023-01-28T12:03:28.219Z,2.40
2023-01-28T12:07:04.531Z,2.63
2023-01-28T12:10:17.313Z,2.35
2023-01-28T12:13:46.489Z,2.20
2023-01-28T12:17:05.840Z,2.34
2023-01-28T12:20:20.523Z,2.30
2023-01-28T12:23:47.236Z,2.14
2023-01-28T12:27:02.518Z,2.23
2023-01-28T12:30:25.016Z,2.11
2023-01-28T12:33:33.503Z,2.13
2023-01-28T12:36:45.060Z,2.05
2023-01-28T12:39:53.613Z,2.23
2023-01-28T12:43:05.551Z,2.21
2023-01-28T12:46:11.037Z,2.07
2023-01-28T12:49:26.024Z,2.10
2023-01-28T12:52:35.400Z,2.05
2023-01-28T12:55:58.367Z,2.09
2023-01-28T12:59:16.931Z,1.78
2023-01-28T13:02:50.263Z,1.89
2023-01-28T13:05:59.385Z,1.90
2023-01-28T13:09:22.696Z,1.85
2023-01-28T13:12:26.545Z,1.74
2023-01-28T13:15:30.762Z,1.92
2023-01-28T13:18:45.707Z,1.85
2023-01-28T13:21:50.128Z,1.87
2023-01-28T13:24:53.052Z,1.98
2023-01-28T13:28:05.103Z,1.93
2023-01-28T13:31:17.430Z,1.88
2023-01-28T13:34:40.790Z,1.88
2023-01-28T13:37:47.423Z,1.70
2023-01-28T13:40:56.977Z,1.81
2023-01-28T13:44:01.366Z,1.73
2023-01-28T13:47:07.544Z,1.88
2023-01-28T13:50:16.813Z,1.86
2023-01-28T13:53:30.806Z,1.71
2023-01-28T13:56:57.205Z,1.84
2023-01-28T14:00:21.244Z,1.86
2023-01-28T14:03:43.005Z,1.72
2023-01-28T14:06:57.565Z,1.65
2023-01-28T14:10:08.754Z,1.65
2023-01-28T14:13:32.963Z,1.73
2023-01-28T14:16:52.272Z,1.83
2023-01-28T14:19:57.667Z,1.74
2023-01-28T14:23:03.323Z,1.73
2023-01-28T14:26:24.200Z,1.70
2023-01-28T14:29:29.498Z,1.69
2023-01-28T14:32:34.372Z,1.62
2023-01-28T14:35:40.355Z,1.59
2023-01-28T14:38:45.386Z,1.68
2023-01-28T14:41:51.170Z,1.64
2023-01-28T14:45:23.290Z,1.62
2023-01-28T14:49:00.034Z,1.59
2023-01-28T14:52:11.655Z,1.60
2023-01-28T14:55:17.293Z,1.63
2023-01-28T14:58:32.955Z,1.59
2023-01-28T15:01:35.700Z,1.51
2023-01-28T15:04:38.616Z,1.47
2023-01-28T15:07:45.555Z,1.45
2023-01-28T15:10:52.163Z,1.40
2023-01-28T15:13:59.038Z,1.41
2023-01-28T15:17:02.816Z,1.43
2023-01-28T15:20:08.316Z,1.36
2023-01-28T15:26:29.309Z,1.30
2023-01-28T15:29:33.639Z,1.34
2023-01-28T15:32:36.581Z,1.32
2023-01-28T15:35:47.454Z,1.30
2023-01-28T15:38:50.199Z,1.20
2023-01-28T15:41:58.945Z,1.21
2023-01-28T15:45:02.210Z,1.26
2023-01-28T15:48:07.087Z,1.27
2023-01-28T15:51:20.421Z,1.29
2023-01-28T15:54:24.964Z,1.23
2023-01-28T15:57:34.803Z,1.22
2023-01-28T16:00:37.783Z,1.27
2023-01-28T16:03:43.736Z,1.29
2023-01-28T16:06:47.053Z,1.35
2023-01-28T16:09:54.972Z,1.30
2023-01-28T16:13:22.332Z,1.24
2023-01-28T16:16:34.421Z,1.27
2023-01-28T16:19:46.182Z,1.26
2023-01-28T16:22:49.280Z,1.27
2023-01-28T16:26:02.383Z,1.26
2023-01-28T16:29:17.090Z,1.27
2023-01-28T16:32:30.893Z,1.30
2023-01-28T16:35:56.519Z,1.22
2023-01-28T16:38:56.433Z,1.23
2023-01-28T16:41:59.973Z,1.20
2023-01-28T16:45:03.569Z,1.23
2023-01-28T16:48:06.657Z,1.18
2023-01-28T16:51:17.365Z,1.21
2023-01-28T16:54:20.131Z,1.22
2023-01-28T16:57:23.037Z,1.21
2023-01-28T17:00:27.630Z,1.23
2023-01-28T17:03:30.593Z,1.03
2023-01-28T17:06:33.565Z,1.16
2023-01-28T17:09:36.326Z,1.17
2023-01-28T17:12:39.241Z,1.16
2023-01-28T17:15:42.839Z,1.16
2023-01-28T17:18:47.928Z,1.20
2023-01-28T17:21:51.440Z,1.22
2023-01-28T17:24:54.473Z,1.16
2023-01-28T17:27:57.170Z,1.16
2023-01-28T17:31:01.352Z,1.19
2023-01-28T17:34:07.100Z,1.21
2023-01-28T17:37:09.988Z,1.21
2023-01-28T17:40:13.497Z,1.16
2023-01-28T17:43:17.896Z,1.12
2023-01-28T17:46:22.048Z,1.14
2023-01-28T17:49:25.164Z,1.12
2023-01-28T17:52:28.180Z,1.14
2023-01-28T17:55:31.044Z,1.15
2023-01-28T17:58:34.005Z,1.15
2023-01-28T18:01:37.520Z,1.09
2023-01-28T18:04:41.582Z,1.10
2023-01-28T18:07:45.684Z,1.11
2023-01-28T18:10:48.944Z,1.06
2023-01-28T18:13:51.683Z,1.08
2023-01-28T18:16:54.440Z,1.12
2023-01-28T18:19:57.578Z,1.05
2023-01-28T18:23:01.575Z,1.01
2023-01-28T18:26:07.362Z,1.05
2023-01-28T18:29:10.138Z,1.04
2023-01-28T18:32:13.174Z,1.12
2023-01-28T18:35:16.313Z,1.05
2023-01-28T18:38:19.217Z,1.07
2023-01-28T18:41:21.998Z,1.07
2023-01-28T18:44:27.001Z,1.03
2023-01-28T18:47:29.785Z,1.07
2023-01-28T18:50:32.994Z,1.08
2023-01-28T18:53:36.035Z,1.07
2023-01-28T18:56:39.625Z,1.09
2023-01-28T18:59:42.612Z,1.11
2023-01-28T19:02:45.838Z,1.07
2023-01-28T19:05:49.009Z,1.11
2023-01-28T19:08:54.051Z,1.18
2023-01-28T19:11:57.032Z,1.06
2023-01-28T19:14:59.887Z,1.14
2023-01-28T19:18:03.536Z,1.05
2023-01-28T19:21:07.293Z,1.04
2023-01-28T19:24:12.464Z,0.96
2023-01-28T19:27:15.632Z,0.91
2023-01-28T19:30:18.748Z,0.87
2023-01-28T19:33:21.992Z,0.95
2023-01-28T19:36:27.134Z,0.97
2023-01-28T19:39:31.775Z,0.91
2023-01-28T19:42:34.831Z,0.90
2023-01-28T19:45:37.664Z,0.93
2023-01-28T19:48:40.486Z,0.85
2023-01-28T19:51:45.102Z,0.97
2023-01-28T19:54:48.703Z,0.90
2023-01-28T19:57:51.432Z,0.93
2023-01-28T20:00:54.526Z,0.86
2023-01-28T20:03:59.431Z,0.83
2023-01-28T20:07:02.596Z,0.92
2023-01-28T20:10:05.953Z,0.84
2023-01-28T20:13:08.972Z,0.91
2023-01-28T20:16:19.383Z,0.95
2023-01-28T20:19:22.325Z,0.89
2023-01-28T20:22:25.592Z,0.85
2023-01-28T20:25:28.331Z,0.86
2023-01-28T20:28:31.332Z,0.86
2023-01-28T20:31:35.534Z,0.82
2023-01-28T20:34:38.746Z,0.88
2023-01-28T20:37:42.570Z,0.84
2023-01-28T20:40:47.508Z,0.87
2023-01-28T20:43:51.730Z,0.90
2023-01-28T20:46:54.822Z,0.89
2023-01-28T20:49:57.692Z,0.95
2023-01-28T20:53:00.796Z,0.87
2023-01-28T20:56:04.652Z,0.82
2023-01-28T20:59:07.798Z,0.84
2023-01-28T21:02:11.390Z,0.83
2023-01-28T21:05:14.514Z,0.80
2023-01-28T21:08:18.805Z,0.80
2023-01-28T21:11:23.086Z,0.79
2023-01-28T21:14:25.842Z,0.87
2023-01-28T21:17:31.817Z,0.85
2023-01-28T21:20:35.118Z,0.84
2023-01-28T21:23:38.039Z,0.80
2023-01-28T21:26:40.989Z,0.82
2023-01-28T21:29:43.886Z,0.82
2023-01-28T21:32:46.726Z,0.77
2023-01-28T21:35:49.471Z,0.71
2023-01-28T21:38:53.825Z,0.73
2023-01-28T21:41:56.701Z,0.81
2023-01-28T21:44:59.407Z,0.79
2023-01-28T21:48:02.225Z,0.77
2023-01-28T21:51:26.099Z,0.78
2023-01-28T21:54:28.947Z,0.74
2023-01-28T21:57:31.664Z,0.82
2023-01-28T22:00:34.380Z,0.81
2023-01-28T22:03:37.170Z,0.92
2023-01-28T22:06:42.285Z,0.89
2023-01-28T22:09:46.956Z,0.88
2023-01-28T22:12:49.984Z,0.93
2023-01-28T22:15:52.728Z,0.90
2023-01-28T22:18:55.703Z,0.85
2023-01-28T22:21:58.516Z,0.78
2023-01-28T22:25:01.907Z,0.75
2023-01-28T22:28:04.840Z,0.80
2023-01-28T22:31:10.159Z,0.56
2023-01-28T22:34:13.400Z,0.74
2023-01-28T22:37:16.234Z,0.62
2023-01-28T22:40:19.287Z,0.70
2023-01-28T22:43:22.768Z,0.76
2023-01-28T22:46:25.645Z,0.84
2023-01-28T22:49:28.362Z,0.84
2023-01-28T22:52:31.238Z,0.76
2023-01-28T22:55:33.982Z,0.72
2023-01-28T22:58:37.367Z,0.73
2023-01-28T23:01:40.465Z,0.78
2023-01-28T23:04:45.756Z,0.79
2023-01-28T23:07:48.439Z,0.77
2023-01-28T23:10:51.782Z,0.78
2023-01-28T23:14:21.140Z,0.69
2023-01-28T23:17:42.756Z,0.76
2023-01-28T23:21:04.399Z,0.77
2023-01-28T23:24:19.764Z,0.73
2023-01-28T23:27:23.227Z,0.70
2023-01-28T23:30:26.175Z,0.64
2023-01-28T23:33:28.935Z,0.77
2023-01-28T23:36:31.649Z,0.79
2023-01-28T23:39:34.806Z,0.77
2023-01-28T23:42:37.700Z,0.76
2023-01-28T23:45:40.535Z,0.73
2023-01-28T23:48:43.855Z,0.76
2023-01-28T23:51:46.772Z,0.78
2023-01-28T23:54:49.518Z,0.87
2023-01-28T23:57:52.262Z,0.74
